»·PEaware :: N6290V KLAX-KSNA

N6290V :: KLAX-KSNA

FLIGHT INFORMATION

Flight Status: Arrived
Operator: Privately registered:
United States
More flights under this callsign
Pilot: Daniel S. (16855)
Aircraft: CESSNA 172 SKYHAWK
(C172)
More flights by this aircraft type
Origin: KLAX Los Angeles Intl
United States
Destination: KSNA John Wayne-Orange Co
United States
More flights between these airports :: More routes between these airports
Route: SLI8 SLI
File this flight plan on PilotEdge
Remarks:
Altitude:
(Current/Filed)
4,000ft
Speed:
(Current/Filed)
115kts
Departed: 21-May-20 10:54 AM
Arrived: 21-May-20 11:36 AM
Distance/Time
Traveled:
31nm/0:42
Distance/Time
To Go:
Arrived

Flight Plot

Page will automatically refresh every two minutes.


Map Options




Map Legend


Flown Route
Filed Route
Departure Airport
Arrival Airport
Navaid (VOR, NDB)
Fix

Horizontal Profiles

Position Reports

Time Latitude Longitude Heading Altitude Ground
Speed
21-May-20 10:30 33.932477 -118.404778 172 117ft 0kts
21-May-20 10:30 33.932477 -118.404778 172 117ft 0kts
21-May-20 10:32 33.932477 -118.404778 172 117ft 0kts
21-May-20 10:32 33.932477 -118.404778 172 117ft 0kts
21-May-20 10:38 33.932477 -118.404778 172 117ft 0kts
21-May-20 10:39 33.932477 -118.404778 172 117ft 0kts
21-May-20 10:40 33.932477 -118.404778 172 117ft 0kts
21-May-20 10:41 33.932477 -118.404778 172 117ft 0kts
21-May-20 10:42 33.932477 -118.404778 172 117ft 0kts
21-May-20 10:43 33.932477 -118.404778 172 117ft 0kts
21-May-20 10:44 33.932477 -118.404778 172 117ft 0kts
21-May-20 10:45 33.933246 -118.404755 39 118ft 2kts
21-May-20 10:46 33.934023 -118.403419 80 115ft 32kts
21-May-20 10:47 33.935148 -118.392595 77 102ft 20kts
21-May-20 10:48 33.935629 -118.387663 81 99ft 21kts
21-May-20 10:49 33.936404 -118.382950 16 96ft 3kts
21-May-20 10:50 33.936540 -118.382901 20 96ft 0kts
21-May-20 10:51 33.936540 -118.382901 20 96ft 0kts
21-May-20 10:52 33.937113 -118.382952 315 96ft 11kts
21-May-20 10:53 33.934780 -118.402074 251 756ft 76kts
21-May-20 10:54 33.928775 -118.427098 258 1748ft 81kts
21-May-20 10:55 33.917193 -118.448974 219 2719ft 79kts
21-May-20 10:56 33.899808 -118.466152 218 3581ft 85kts
21-May-20 10:57 33.879154 -118.484416 212 4030ft 93kts
21-May-20 10:58 33.853208 -118.503453 208 3906ft 120kts
21-May-20 10:59 33.824757 -118.523639 214 3917ft 111kts
21-May-20 11:00 33.798705 -118.548612 213 3752ft 119kts
21-May-20 11:01 33.770062 -118.569543 212 3741ft 116kts
21-May-20 11:03 33.712670 -118.609589 208 3597ft 122kts
21-May-20 11:04 33.693041 -118.593487 81 3718ft 120kts
21-May-20 11:05 33.701420 -118.556726 78 3847ft 116kts
21-May-20 11:06 33.714593 -118.521722 66 3917ft 113kts
21-May-20 11:07 33.723711 -118.485295 78 3961ft 115kts
21-May-20 11:08 33.730404 -118.447252 77 3938ft 117kts
21-May-20 11:09 33.736941 -118.409128 78 3944ft 117kts
21-May-20 11:10 33.744084 -118.370911 72 4002ft 110kts
21-May-20 11:11 33.750596 -118.331325 82 3847ft 112kts
21-May-20 11:12 33.754595 -118.293097 80 3853ft 115kts
21-May-20 11:13 33.762104 -118.255346 70 3912ft 111kts
21-May-20 11:14 33.768385 -118.217595 82 3915ft 114kts
21-May-20 11:15 33.773355 -118.179504 76 3945ft 115kts
21-May-20 11:16 33.783308 -118.142768 72 3977ft 115kts
21-May-20 11:17 33.795015 -118.104505 65 3789ft 118kts
21-May-20 11:18 33.808840 -118.069749 64 3876ft 114kts
21-May-20 11:19 33.821918 -118.034597 64 3908ft 115kts
21-May-20 11:20 33.831888 -117.997992 75 3941ft 115kts
21-May-20 11:21 33.839085 -117.959727 76 3876ft 121kts
21-May-20 11:22 33.848683 -117.922433 69 3932ft 115kts
21-May-20 11:23 33.859752 -117.885739 68 3294ft 117kts
21-May-20 11:24 33.872164 -117.850560 70 2827ft 112kts
21-May-20 11:25 33.882524 -117.815448 66 2830ft 111kts
21-May-20 11:26 33.894020 -117.781022 69 2822ft 111kts
21-May-20 11:27 33.875708 -117.762110 175 2853ft 107kts
21-May-20 11:28 33.845529 -117.762381 181 2970ft 109kts
21-May-20 11:29 33.816771 -117.775146 213 3017ft 112kts
21-May-20 11:30 33.790455 -117.795148 222 2256ft 119kts
21-May-20 11:31 33.764202 -117.809286 195 1740ft 99kts
21-May-20 11:32 33.740549 -117.825896 222 1572ft 102kts
21-May-20 11:33 33.714210 -117.844146 201 847ft 109kts
21-May-20 11:34 33.686303 -117.862004 207 211ft 114kts
21-May-20 11:35 33.675822 -117.869400 284 60ft 12kts

Navigation Log

Ident Type
Flight plan parsing failed, navigation log unavailable